createdAt,value
2022-12-08T00:01:29.952Z,100375.53
2022-12-08T00:04:51.539Z,100387.25
2022-12-08T00:08:11.578Z,100390.47
2022-12-08T00:11:14.113Z,100386.84
2022-12-08T00:14:15.763Z,100385.38
2022-12-08T00:17:17.839Z,100384.91
2022-12-08T00:20:19.464Z,100384.28
2022-12-08T00:23:21.075Z,100394.78
2022-12-08T00:26:23.778Z,100388.28
2022-12-08T00:29:25.430Z,100381.50
2022-12-08T00:32:27.077Z,100390.84
2022-12-08T00:35:28.674Z,100390.75
2022-12-08T00:38:30.290Z,100393.28
2022-12-08T00:41:50.291Z,100389.22
2022-12-08T00:44:51.901Z,100394.06
2022-12-08T00:47:53.580Z,100393.69
2022-12-08T00:50:55.217Z,100393.94
2022-12-08T00:53:56.857Z,100394.56
2022-12-08T00:56:58.554Z,100396.87
2022-12-08T01:00:00.373Z,100392.03
2022-12-08T01:03:02.240Z,100394.69
2022-12-08T01:06:05.460Z,100393.13
2022-12-08T01:09:09.506Z,100401.81
2022-12-08T01:12:11.158Z,100401.03
2022-12-08T01:15:12.785Z,100398.56
2022-12-08T01:18:14.411Z,100397.41
2022-12-08T01:21:16.073Z,100400.81
2022-12-08T01:24:21.177Z,100399.78
2022-12-08T01:27:22.839Z,100395.59
2022-12-08T01:30:24.611Z,100394.66
2022-12-08T01:33:27.043Z,100383.69
2022-12-08T01:36:31.308Z,100389.25
2022-12-08T01:39:32.943Z,100379.63
2022-12-08T01:42:34.705Z,100385.81
2022-12-08T01:45:36.306Z,100389.37
2022-12-08T01:48:37.964Z,100390.13
2022-12-08T01:52:04.163Z,100387.72
2022-12-08T01:55:18.484Z,100383.63
2022-12-08T01:58:28.791Z,100387.56
2022-12-08T02:01:30.434Z,100384.91
2022-12-08T02:04:32.065Z,100383.22
2022-12-08T02:07:35.617Z,100384.25
2022-12-08T02:10:40.686Z,100385.00
2022-12-08T02:13:44.674Z,100386.03
2022-12-08T02:17:39.960Z,100388.97
2022-12-08T02:20:57.822Z,100387.19
2022-12-08T02:24:03.330Z,100382.31
2022-12-08T02:27:28.130Z,100371.19
2022-12-08T02:30:54.048Z,100374.19
2022-12-08T02:33:55.640Z,100370.06
2022-12-08T02:37:10.828Z,100364.97
2022-12-08T02:40:15.194Z,100359.88
2022-12-08T02:43:39.556Z,100363.31
2022-12-08T02:46:48.564Z,100357.59
2022-12-08T02:49:50.285Z,100350.81
2022-12-08T02:52:51.972Z,100348.38
2022-12-08T02:56:05.613Z,100346.44
2022-12-08T02:59:29.061Z,100340.28
2022-12-08T03:02:52.262Z,100343.25
2022-12-08T03:06:15.522Z,100337.75
2022-12-08T03:09:50.604Z,100338.91
2022-12-08T03:13:23.219Z,100342.63
2022-12-08T03:16:27.993Z,100338.87
2022-12-08T03:19:37.522Z,100342.59
2022-12-08T03:22:41.832Z,100337.22
2022-12-08T03:25:53.408Z,100348.09
2022-12-08T03:28:55.237Z,100357.75
2022-12-08T03:32:03.447Z,100356.44
2022-12-08T03:35:10.810Z,100348.09
2022-12-08T03:38:15.171Z,100338.66
2022-12-08T03:41:19.543Z,100354.59
2022-12-08T03:44:21.248Z,100343.31
2022-12-08T03:47:22.945Z,100347.34
2022-12-08T03:50:25.134Z,100348.87
2022-12-08T03:53:26.787Z,100348.91
2022-12-08T03:56:36.820Z,100349.41
2022-12-08T03:59:38.655Z,100343.75
2022-12-08T04:02:40.285Z,100350.13
2022-12-08T04:05:41.945Z,100345.09
2022-12-08T04:08:43.554Z,100347.16
2022-12-08T04:11:45.187Z,100342.88
2022-12-08T04:14:47.417Z,100347.56
2022-12-08T04:17:49.016Z,100338.19
2022-12-08T04:20:50.641Z,100347.06
2022-12-08T04:23:57.535Z,100347.53
2022-12-08T04:27:02.357Z,100352.22
2022-12-08T04:30:04.480Z,100341.19
2022-12-08T04:33:06.540Z,100339.38
2022-12-08T04:36:08.734Z,100344.44
2022-12-08T04:39:10.360Z,100342.72
2022-12-08T04:42:11.949Z,100340.19
2022-12-08T04:45:13.628Z,100338.13
2022-12-08T04:48:15.624Z,100336.19
2022-12-08T04:51:19.396Z,100336.50
2022-12-08T04:54:21.053Z,100332.41
2022-12-08T04:57:22.644Z,100329.47
2022-12-08T05:00:24.605Z,100331.13
2022-12-08T05:03:28.768Z,100334.56
2022-12-08T05:06:30.595Z,100336.38
2022-12-08T05:09:32.186Z,100334.72
2022-12-08T05:12:33.885Z,100328.84
2022-12-08T05:15:35.573Z,100329.59
2022-12-08T05:18:37.852Z,100325.72
2022-12-08T05:21:39.790Z,100333.84
2022-12-08T05:24:47.005Z,100328.94
2022-12-08T05:27:49.236Z,100326.19
2022-12-08T05:30:51.378Z,100321.22
2022-12-08T05:33:53.480Z,100317.84
2022-12-08T05:36:55.502Z,100316.22
2022-12-08T05:39:57.137Z,100318.56
2022-12-08T05:42:58.846Z,100316.41
2022-12-08T05:46:00.542Z,100316.38
2022-12-08T05:49:03.167Z,100313.25
2022-12-08T05:52:04.840Z,100310.25
2022-12-08T05:55:06.821Z,100315.53
2022-12-08T05:58:12.577Z,100309.62
2022-12-08T06:01:22.779Z,100314.16
2022-12-08T06:04:24.444Z,100309.53
2022-12-08T06:07:26.242Z,100311.66
2022-12-08T06:10:28.114Z,100309.75
2022-12-08T06:13:29.796Z,100312.69
2022-12-08T06:16:31.533Z,100312.94
2022-12-08T06:19:33.228Z,100316.91
2022-12-08T06:22:35.459Z,100313.28
2022-12-08T06:25:37.142Z,100316.56
2022-12-08T06:28:39.268Z,100314.38
2022-12-08T06:31:41.065Z,100323.88
2022-12-08T06:34:42.680Z,100323.88
2022-12-08T06:37:44.380Z,100328.34
2022-12-08T06:40:53.721Z,100332.56
2022-12-08T06:43:58.314Z,100334.91
2022-12-08T06:46:59.911Z,100335.41
2022-12-08T06:50:01.745Z,100331.56
2022-12-08T06:53:05.658Z,100326.84
2022-12-08T06:56:08.472Z,100326.00
2022-12-08T06:59:10.492Z,100320.84
2022-12-08T07:02:12.129Z,100336.22
2022-12-08T07:05:13.886Z,100321.53
2022-12-08T07:08:15.783Z,100333.66
2022-12-08T07:11:21.442Z,100337.75
2022-12-08T07:14:24.990Z,100347.00
2022-12-08T07:17:26.637Z,100352.09
2022-12-08T07:20:28.446Z,100359.88
2022-12-08T07:23:30.155Z,100350.22
2022-12-08T07:26:31.834Z,100350.78
2022-12-08T07:29:33.445Z,100355.78
2022-12-08T07:32:35.044Z,100352.37
2022-12-08T07:35:36.771Z,100348.22
2022-12-08T07:38:38.629Z,100343.62
2022-12-08T07:41:40.237Z,100354.34
2022-12-08T07:44:41.855Z,100352.47
2022-12-08T07:47:43.513Z,100350.44
2022-12-08T07:50:45.653Z,100347.88
2022-12-08T07:53:53.824Z,100346.22
2022-12-08T07:56:58.177Z,100338.41
2022-12-08T07:59:59.781Z,100344.31
2022-12-08T08:03:02.700Z,100343.66
2022-12-08T08:06:05.198Z,100345.87
2022-12-08T08:09:06.841Z,100332.81
2022-12-08T08:12:30.084Z,100332.91
2022-12-08T08:15:32.145Z,100335.13
2022-12-08T08:18:34.848Z,100332.22
2022-12-08T08:21:45.612Z,100338.25
2022-12-08T08:24:47.921Z,100337.53
2022-12-08T08:27:50.178Z,100343.00
2022-12-08T08:30:52.131Z,100335.16
2022-12-08T08:33:54.151Z,100337.41
2022-12-08T08:36:55.838Z,100332.78
2022-12-08T08:39:57.623Z,100328.72
2022-12-08T08:43:01.201Z,100339.13
2022-12-08T08:46:03.831Z,100334.47
2022-12-08T08:49:05.545Z,100331.41
2022-12-08T08:52:07.591Z,100329.72
2022-12-08T08:55:09.480Z,100331.09
2022-12-08T08:58:11.247Z,100333.47
2022-12-08T09:01:18.399Z,100336.16
2022-12-08T09:04:21.067Z,100323.78
2022-12-08T09:07:22.827Z,100319.03
2022-12-08T09:10:24.762Z,100331.19
2022-12-08T09:13:26.427Z,100327.44
2022-12-08T09:16:28.309Z,100316.25
2022-12-08T09:19:29.956Z,100313.00
2022-12-08T09:22:31.587Z,100307.19
2022-12-08T09:25:33.225Z,100306.16
2022-12-08T09:28:35.056Z,100301.34
2022-12-08T09:31:37.181Z,100301.91
2022-12-08T09:34:38.881Z,100297.47
2022-12-08T09:37:40.509Z,100294.47
2022-12-08T09:40:51.361Z,100289.94
2022-12-08T09:44:11.318Z,100285.41
2022-12-08T09:47:36.421Z,100288.56
2022-12-08T09:50:44.160Z,100278.75
2022-12-08T09:53:48.062Z,100277.87
2022-12-08T09:56:55.048Z,100267.13
2022-12-08T10:00:03.131Z,100261.97
2022-12-08T10:03:11.182Z,100260.41
2022-12-08T10:06:30.454Z,100262.66
2022-12-08T10:09:45.658Z,100265.34
2022-12-08T10:13:05.599Z,100259.56
2022-12-08T10:16:33.727Z,100249.16
2022-12-08T10:19:35.602Z,100245.56
2022-12-08T10:22:42.902Z,100239.25
2022-12-08T10:26:03.804Z,100235.44
2022-12-08T10:29:07.056Z,100223.84
2022-12-08T10:32:22.029Z,100204.25
2022-12-08T10:35:25.310Z,100184.50
2022-12-08T10:38:31.468Z,100174.50
2022-12-08T10:41:33.103Z,100168.56
2022-12-08T10:44:49.983Z,100163.13
2022-12-08T10:47:57.471Z,100150.59
2022-12-08T10:50:59.696Z,100125.78
2022-12-08T10:54:01.729Z,100151.81
2022-12-08T10:57:03.462Z,100153.75
2022-12-08T11:00:10.940Z,100156.56
2022-12-08T11:03:31.612Z,100151.72
2022-12-08T11:06:39.161Z,100159.44
2022-12-08T11:09:48.781Z,100159.69
2022-12-08T11:12:50.638Z,100166.94
2022-12-08T11:15:55.283Z,100164.88
2022-12-08T11:18:58.369Z,100169.06
2022-12-08T11:22:00.001Z,100164.88
2022-12-08T11:25:08.477Z,100169.88
2022-12-08T11:28:11.067Z,100171.53
2022-12-08T11:31:25.378Z,100169.37
2022-12-08T11:34:42.767Z,100173.06
2022-12-08T11:37:44.685Z,100167.09
2022-12-08T11:40:46.644Z,100157.16
2022-12-08T11:44:21.928Z,100145.31
2022-12-08T11:47:41.595Z,100133.72
2022-12-08T11:51:16.841Z,100132.09
2022-12-08T11:54:30.661Z,100123.62
2022-12-08T11:57:32.409Z,100122.72
2022-12-08T12:00:34.064Z,100118.75
2022-12-08T12:03:44.835Z,100120.28
2022-12-08T12:07:04.536Z,100112.75
2022-12-08T12:10:57.534Z,100124.66
2022-12-08T12:14:31.441Z,100116.13
2022-12-08T12:17:35.907Z,100095.00
2022-12-08T12:20:52.636Z,100083.59
2022-12-08T12:23:59.630Z,100074.69
2022-12-08T12:27:15.781Z,100069.12
2022-12-08T12:30:26.654Z,100065.78
2022-12-08T12:33:31.427Z,100063.28
2022-12-08T12:36:46.835Z,100063.44
2022-12-08T12:40:03.721Z,100065.25
2022-12-08T12:43:06.070Z,100070.53
2022-12-08T12:46:23.131Z,100071.88
2022-12-08T12:49:43.857Z,100072.28
2022-12-08T12:52:46.057Z,100061.72
2022-12-08T12:56:33.643Z,100053.00
2022-12-08T12:59:45.499Z,100049.00
2022-12-08T13:02:51.276Z,100054.13
2022-12-08T13:05:53.475Z,100055.75
2022-12-08T13:08:56.352Z,100060.09
2022-12-08T13:12:01.393Z,100054.50
2022-12-08T13:15:06.889Z,100050.53
2022-12-08T13:18:20.905Z,100048.53
2022-12-08T13:21:24.755Z,100046.41
2022-12-08T13:24:32.980Z,100048.59
2022-12-08T13:27:35.034Z,100042.53
2022-12-08T13:30:42.784Z,100044.50
2022-12-08T13:33:44.631Z,100032.44
2022-12-08T13:37:02.949Z,100045.59
2022-12-08T13:40:18.473Z,100042.69
2022-12-08T13:43:36.239Z,100055.41
2022-12-08T13:47:17.263Z,100056.59
2022-12-08T13:57:14.655Z,100040.25
2022-12-08T14:00:22.727Z,100045.13
2022-12-08T14:03:24.614Z,100055.97
2022-12-08T14:06:29.518Z,100052.56
2022-12-08T14:09:37.006Z,100050.22
2022-12-08T14:12:39.719Z,100040.41
2022-12-08T14:15:41.379Z,100034.97
2022-12-08T14:18:43.032Z,100037.06
2022-12-08T14:21:58.991Z,100033.53
2022-12-08T14:25:00.817Z,100033.28
2022-12-08T14:28:04.545Z,100029.34
2022-12-08T14:31:06.832Z,100023.13
2022-12-08T14:34:12.011Z,100022.78
2022-12-08T14:37:14.227Z,100013.63
2022-12-08T14:40:22.803Z,100013.13
2022-12-08T14:43:29.183Z,100002.06
2022-12-08T14:46:30.935Z,100009.13
2022-12-08T14:49:37.977Z,100007.50
2022-12-08T14:52:44.501Z,100009.03
2022-12-08T14:55:47.897Z,100003.97
2022-12-08T14:59:02.616Z,100003.59
2022-12-08T15:02:09.990Z,99995.84
2022-12-08T15:05:17.049Z,100004.19
2022-12-08T15:08:18.984Z,100000.69
2022-12-08T15:11:23.574Z,99994.53
2022-12-08T15:14:34.036Z,99998.75
2022-12-08T15:17:44.235Z,100004.16
2022-12-08T15:20:50.160Z,99998.72
2022-12-08T15:23:52.137Z,99999.81
2022-12-08T15:26:54.158Z,99996.44
2022-12-08T15:29:55.754Z,99997.09
2022-12-08T15:32:57.440Z,99985.41
2022-12-08T15:35:59.276Z,99979.47
2022-12-08T15:39:01.145Z,99977.00
2022-12-08T15:42:04.669Z,99974.88
2022-12-08T15:45:06.874Z,99965.81
2022-12-08T15:48:16.347Z,99969.56
2022-12-08T15:51:18.013Z,99960.69
2022-12-08T15:54:19.684Z,99959.22
2022-12-08T15:57:53.492Z,99957.16
2022-12-08T16:00:52.929Z,99957.25
2022-12-08T16:07:28.223Z,99965.78
2022-12-08T16:10:59.015Z,99961.88
2022-12-08T16:14:23.267Z,99969.75
2022-12-08T16:17:14.879Z,99968.50
2022-12-08T16:20:18.183Z,99983.31
2022-12-08T16:23:41.681Z,99981.47
2022-12-08T16:30:06.714Z,99982.97
2022-12-08T16:33:10.578Z,99974.91
2022-12-08T16:36:12.374Z,99970.00
2022-12-08T16:39:14.634Z,99956.72
2022-12-08T16:42:37.618Z,99955.66
2022-12-08T16:45:44.962Z,99952.47
2022-12-08T16:48:47.004Z,99951.12
2022-12-08T16:51:48.691Z,99952.00
2022-12-08T16:54:50.504Z,99961.69
2022-12-08T16:57:52.481Z,99976.16
2022-12-08T17:00:54.263Z,99970.19
2022-12-08T17:04:29.147Z,99977.38
2022-12-08T17:07:17.651Z,99985.75
2022-12-08T17:10:26.696Z,99983.22
2022-12-08T17:13:28.496Z,99967.00
2022-12-08T17:16:30.424Z,99973.09
2022-12-08T17:19:32.565Z,99969.34
2022-12-08T17:22:35.445Z,99959.62
2022-12-08T17:25:37.457Z,99954.47
2022-12-08T17:28:59.524Z,99943.94
2022-12-08T17:32:01.640Z,99943.78
2022-12-08T17:35:04.422Z,99953.72
2022-12-08T17:38:06.559Z,99941.19
2022-12-08T17:41:10.089Z,99954.59
2022-12-08T17:44:15.083Z,99957.59
2022-12-08T17:47:16.878Z,99978.63
2022-12-08T17:50:18.772Z,99998.31
2022-12-08T17:53:21.664Z,100004.53
2022-12-08T17:56:25.317Z,100004.00
2022-12-08T17:59:29.161Z,99998.97
2022-12-08T18:02:33.557Z,100003.09
2022-12-08T18:05:35.534Z,100018.97
2022-12-08T18:08:37.973Z,100014.00
2022-12-08T18:11:40.942Z,100014.13
2022-12-08T18:14:44.197Z,100008.34
2022-12-08T18:17:47.318Z,100005.88
2022-12-08T18:20:50.073Z,99995.47
2022-12-08T18:23:52.259Z,99990.97
2022-12-08T18:26:55.579Z,99985.91
2022-12-08T18:29:57.613Z,99978.09
2022-12-08T18:32:59.501Z,99983.41
2022-12-08T18:36:02.023Z,99976.41
2022-12-08T18:39:08.917Z,99972.09
2022-12-08T18:42:23.109Z,99974.03
2022-12-08T18:45:25.170Z,99972.06
2022-12-08T18:48:27.148Z,99967.50
2022-12-08T18:51:29.074Z,99966.09
2022-12-08T18:54:50.047Z,99959.22
2022-12-08T18:57:53.910Z,99959.56
2022-12-08T19:00:59.533Z,99954.50
2022-12-08T19:07:25.541Z,99961.59
2022-12-08T19:10:27.880Z,99970.63
2022-12-08T19:13:30.868Z,99969.78
2022-12-08T19:16:33.214Z,99978.56
2022-12-08T19:19:36.596Z,99976.44
2022-12-08T19:22:39.119Z,99972.59
2022-12-08T19:25:42.060Z,99962.75
2022-12-08T19:28:44.582Z,99945.19
2022-12-08T19:31:47.195Z,99951.03
2022-12-08T19:34:49.882Z,99939.28
2022-12-08T19:37:55.289Z,99941.19
2022-12-08T19:41:16.557Z,99949.78
2022-12-08T19:44:35.507Z,99953.91
2022-12-08T19:47:38.980Z,99948.37
2022-12-08T19:50:42.002Z,99958.28
2022-12-08T19:53:47.797Z,99966.19
2022-12-08T19:56:52.161Z,99964.31
2022-12-08T19:59:56.438Z,99964.53
2022-12-08T20:03:00.394Z,99966.53
2022-12-08T20:06:04.235Z,99965.94
2022-12-08T20:09:07.774Z,99971.72
2022-12-08T20:12:10.464Z,99979.25
2022-12-08T20:15:13.215Z,99986.53
2022-12-08T20:18:17.287Z,99987.66
2022-12-08T20:21:19.974Z,99978.69
2022-12-08T20:24:22.729Z,99966.91
2022-12-08T20:27:27.340Z,99969.94
2022-12-08T20:30:31.058Z,99963.37
2022-12-08T20:33:33.591Z,99955.56
2022-12-08T20:36:35.728Z,99961.75
2022-12-08T20:39:38.898Z,99963.25
2022-12-08T20:42:41.429Z,99966.81
2022-12-08T20:45:44.025Z,99967.78
2022-12-08T20:48:46.895Z,99965.47
2022-12-08T20:51:50.168Z,99957.13
2022-12-08T20:54:54.146Z,99957.06
2022-12-08T20:57:56.265Z,99960.25
2022-12-08T21:00:58.808Z,99959.19
2022-12-08T21:04:01.331Z,99948.28
2022-12-08T21:07:03.393Z,99955.19
2022-12-08T21:10:05.997Z,99953.44
2022-12-08T21:13:08.417Z,99956.94
2022-12-08T21:16:13.772Z,99948.37
2022-12-08T21:19:15.728Z,99966.47
2022-12-08T21:22:17.599Z,99965.41
2022-12-08T21:25:19.534Z,99965.66
2022-12-08T21:28:21.272Z,99973.53
2022-12-08T21:31:23.207Z,99984.22
2022-12-08T21:34:26.061Z,99980.16
2022-12-08T21:37:27.747Z,99974.97
2022-12-08T21:40:29.604Z,99979.50
2022-12-08T21:43:31.623Z,99976.06
2022-12-08T21:46:33.679Z,99973.59
2022-12-08T21:49:35.382Z,99972.97
2022-12-08T21:52:38.577Z,99968.25
2022-12-08T21:55:40.416Z,99975.78
2022-12-08T21:58:42.116Z,99981.03
2022-12-08T22:01:44.526Z,99984.13
2022-12-08T22:04:47.981Z,99985.13
2022-12-08T22:07:49.950Z,99982.09
2022-12-08T22:10:51.756Z,99975.78
2022-12-08T22:13:53.582Z,99966.09
2022-12-08T22:16:55.319Z,99965.81
2022-12-08T22:19:56.954Z,99962.47
2022-12-08T22:22:58.641Z,99954.41
2022-12-08T22:26:02.147Z,99946.06
2022-12-08T22:29:04.492Z,99935.44
2022-12-08T22:32:06.449Z,99928.59
2022-12-08T22:35:08.826Z,99918.72
2022-12-08T22:38:10.613Z,99917.97
2022-12-08T22:41:12.466Z,99925.97
2022-12-08T22:44:14.847Z,99941.69
2022-12-08T22:47:16.586Z,99939.78
2022-12-08T22:50:36.853Z,99932.97
2022-12-08T22:53:39.311Z,99943.97
2022-12-08T22:56:40.933Z,99942.13
2022-12-08T22:59:43.331Z,99928.66
2022-12-08T23:02:45.554Z,99947.41
2022-12-08T23:05:47.632Z,99948.72
2022-12-08T23:08:49.443Z,99945.09
2022-12-08T23:11:52.142Z,99952.66
2022-12-08T23:14:54.044Z,99946.41
2022-12-08T23:17:55.720Z,99951.31
2022-12-08T23:21:10.122Z,99949.16
2022-12-08T23:24:11.723Z,99953.00
2022-12-08T23:27:13.362Z,99963.47
2022-12-08T23:30:15.604Z,99948.72
2022-12-08T23:33:17.436Z,99956.37
2022-12-08T23:36:20.469Z,99953.44
2022-12-08T23:39:24.715Z,99962.75
2022-12-08T23:42:26.397Z,99968.44
2022-12-08T23:45:28.152Z,99958.22
2022-12-08T23:48:30.202Z,99956.37
2022-12-08T23:51:32.012Z,99960.72
2022-12-08T23:54:33.840Z,99965.97
2022-12-08T23:57:36.646Z,99964.97
